Steilacoom, Washington
Current Conditions -  °F | °C
As of 10:16 PM on Saturday 20 Dec 2014 (Local Time) from KTCM Reporting Station
Overcast Overcast  
Wind Chill: 13°   Ceiling: 5500
Heat Index: 13°   Visibility: 10mi
Dew Point: 13°   Wind: 18mph
Humidity: 100%   Direction: 230°SW
Pressure: 29.54"   Gusts: 26mph
Location:  47.17°N, 122.59°W
Report Text: KTCM 210616Z AUTO 23016G23KT 10SM FEW006 SCT012 SCT018 SCT026 OVC055 13/13 A2954 RMK AO2 RAE09DZB09E11 CIG 017 RWY34
Loading
Personal Weather Stations






























Interactive Weather Map New forecast layout! Learn more

10-Day Weather Forecast

Advertisements
Track Severe Weather on mobile